createdAt,value
2022-10-26T00:01:16.506Z,4.93
2022-10-26T00:03:45.404Z,5.10
2022-10-26T00:06:17.849Z,5.25
2022-10-26T00:08:45.157Z,4.70
2022-10-26T00:11:15.547Z,5.22
2022-10-26T00:13:45.606Z,4.93
2022-10-26T00:16:13.809Z,4.88
2022-10-26T00:18:40.863Z,4.50
2022-10-26T00:21:09.915Z,4.47
2022-10-26T00:23:37.058Z,4.60
2022-10-26T00:26:04.599Z,4.47
2022-10-26T00:28:31.999Z,5.18
2022-10-26T00:31:03.430Z,5.43
2022-10-26T00:33:32.021Z,5.18
2022-10-26T00:36:01.212Z,5.43
2022-10-26T00:38:30.549Z,4.82
2022-10-26T00:43:23.789Z,4.47
2022-10-26T00:45:52.768Z,5.20
2022-10-26T00:48:34.554Z,4.60
2022-10-26T00:51:05.970Z,4.05
2022-10-26T00:53:33.150Z,4.70
2022-10-26T00:56:01.045Z,4.85
2022-10-26T00:58:28.106Z,4.50
2022-10-26T01:00:55.009Z,4.80
2022-10-26T01:03:28.256Z,5.18
2022-10-26T01:05:57.674Z,5.07
2022-10-26T01:08:28.746Z,4.78
2022-10-26T01:11:00.539Z,5.05
2022-10-26T01:13:30.557Z,4.28
2022-10-26T01:16:26.177Z,5.13
2022-10-26T01:19:22.717Z,4.30
2022-10-26T01:22:12.902Z,4.80
2022-10-26T01:25:03.894Z,5.35
2022-10-26T01:27:40.177Z,5.30
2022-10-26T01:30:34.096Z,4.38
2022-10-26T01:33:22.515Z,4.57
2022-10-26T01:36:07.708Z,4.70
2022-10-26T01:39:03.513Z,4.97
2022-10-26T01:41:35.128Z,4.93
2022-10-26T01:44:07.240Z,4.60
2022-10-26T01:46:39.459Z,4.55
2022-10-26T01:49:15.485Z,4.85
2022-10-26T01:51:44.385Z,4.65
2022-10-26T01:54:11.274Z,5.10
2022-10-26T01:56:45.057Z,5.03
2022-10-26T01:59:31.149Z,4.80
2022-10-26T02:02:22.910Z,4.68
2022-10-26T02:05:21.883Z,4.72
2022-10-26T02:07:57.651Z,4.55
2022-10-26T02:10:39.283Z,4.63
2022-10-26T02:13:24.117Z,4.70
2022-10-26T02:15:55.417Z,4.60
2022-10-26T02:18:30.492Z,4.55
2022-10-26T02:21:11.849Z,4.43
2022-10-26T02:23:42.386Z,4.53
2022-10-26T02:26:12.696Z,4.60
2022-10-26T02:28:45.059Z,4.50
2022-10-26T02:31:14.038Z,4.32
2022-10-26T02:33:52.063Z,4.70
2022-10-26T02:36:25.230Z,4.38
2022-10-26T02:38:54.166Z,4.00
2022-10-26T02:41:23.116Z,4.38
2022-10-26T02:44:13.144Z,4.35
2022-10-26T02:46:42.678Z,4.10
2022-10-26T02:49:09.864Z,4.72
2022-10-26T02:51:46.190Z,4.13
2022-10-26T02:54:16.367Z,4.40
2022-10-26T02:56:52.593Z,4.78
2022-10-26T02:59:22.599Z,4.85
2022-10-26T03:01:53.598Z,4.55
2022-10-26T03:04:20.569Z,5.20
2022-10-26T03:06:54.667Z,5.07
2022-10-26T03:09:25.733Z,5.00
2022-10-26T03:11:52.990Z,5.40
2022-10-26T03:14:20.187Z,4.90
2022-10-26T03:16:47.141Z,5.88
2022-10-26T03:19:13.913Z,5.53
2022-10-26T03:21:42.352Z,6.38
2022-10-26T03:24:11.267Z,6.10
2022-10-26T03:26:38.300Z,5.63
2022-10-26T03:29:09.061Z,6.05
2022-10-26T03:31:37.880Z,5.55
2022-10-26T03:34:04.578Z,5.78
2022-10-26T03:36:31.323Z,5.97
2022-10-26T03:38:57.903Z,5.75
2022-10-26T03:41:24.580Z,6.18
2022-10-26T03:43:51.224Z,5.90
2022-10-26T03:46:18.002Z,5.63
2022-10-26T03:48:47.409Z,5.65
2022-10-26T03:51:16.377Z,5.30
2022-10-26T03:53:42.956Z,5.43
2022-10-26T03:56:09.732Z,5.30
2022-10-26T03:58:36.678Z,5.13
2022-10-26T04:01:03.841Z,4.95
2022-10-26T04:03:32.782Z,4.32
2022-10-26T04:06:06.166Z,4.50
2022-10-26T04:08:35.018Z,4.72
2022-10-26T04:11:04.828Z,5.18
2022-10-26T04:13:31.832Z,4.25
2022-10-26T04:15:58.784Z,4.22
2022-10-26T04:18:28.050Z,4.18
2022-10-26T04:20:54.981Z,4.53
2022-10-26T04:23:22.297Z,3.47
2022-10-26T04:25:48.933Z,3.45
2022-10-26T04:28:15.605Z,3.80
2022-10-26T04:30:42.411Z,4.10
2022-10-26T04:33:09.219Z,4.10
2022-10-26T04:35:35.978Z,3.65
2022-10-26T04:38:05.098Z,3.42
2022-10-26T04:40:32.978Z,4.28
2022-10-26T04:42:59.836Z,4.13
2022-10-26T04:45:32.266Z,4.00
2022-10-26T04:48:07.351Z,3.92
2022-10-26T04:50:34.765Z,4.05
2022-10-26T04:53:02.233Z,3.60
2022-10-26T04:55:28.864Z,4.57
2022-10-26T04:58:00.353Z,4.32
2022-10-26T05:00:30.222Z,3.75
2022-10-26T05:03:05.104Z,3.60
2022-10-26T05:05:33.623Z,4.05
2022-10-26T05:08:00.422Z,3.83
2022-10-26T05:10:28.566Z,3.83
2022-10-26T05:12:56.841Z,3.47
2022-10-26T05:15:23.602Z,3.83
2022-10-26T05:18:02.857Z,3.47
2022-10-26T05:20:31.609Z,3.50
2022-10-26T05:23:01.152Z,4.00
2022-10-26T05:25:30.710Z,4.07
2022-10-26T05:28:01.747Z,3.58
2022-10-26T05:30:29.058Z,3.97
2022-10-26T05:33:00.423Z,4.40
2022-10-26T05:35:27.380Z,3.80
2022-10-26T05:37:54.660Z,3.60
2022-10-26T05:40:24.129Z,3.80
2022-10-26T05:42:56.029Z,3.65
2022-10-26T05:45:25.145Z,3.50
2022-10-26T05:47:57.414Z,3.72
2022-10-26T05:50:28.992Z,3.33
2022-10-26T05:52:56.312Z,4.03
2022-10-26T05:55:23.285Z,3.95
2022-10-26T05:57:50.543Z,3.90
2022-10-26T06:00:20.823Z,3.90
2022-10-26T06:03:16.737Z,4.40
2022-10-26T06:05:58.876Z,3.78
2022-10-26T06:08:28.730Z,4.07
2022-10-26T06:11:03.085Z,4.07
2022-10-26T06:13:30.143Z,3.67
2022-10-26T06:16:33.571Z,3.80
2022-10-26T06:19:22.208Z,3.92
2022-10-26T06:22:29.328Z,3.80
2022-10-26T06:25:16.640Z,3.80
2022-10-26T06:27:53.150Z,3.92
2022-10-26T06:30:23.420Z,3.88
2022-10-26T06:33:05.576Z,3.72
2022-10-26T06:35:41.229Z,3.83
2022-10-26T06:38:14.410Z,3.53
2022-10-26T06:40:45.097Z,3.55
2022-10-26T06:43:30.241Z,3.95
2022-10-26T06:46:27.644Z,3.75
2022-10-26T06:49:02.490Z,3.10
2022-10-26T06:51:33.372Z,4.15
2022-10-26T06:54:13.325Z,4.03
2022-10-26T06:56:40.512Z,3.42
2022-10-26T06:59:15.482Z,4.07
2022-10-26T07:01:42.404Z,4.20
2022-10-26T07:04:09.083Z,3.70
2022-10-26T07:06:39.395Z,3.10
2022-10-26T07:09:08.707Z,3.45
2022-10-26T07:11:35.458Z,3.25
2022-10-26T07:14:02.507Z,2.90
2022-10-26T07:16:29.414Z,3.03
2022-10-26T07:18:56.078Z,3.53
2022-10-26T07:21:22.857Z,3.22
2022-10-26T07:23:49.584Z,4.75
2022-10-26T07:26:16.232Z,3.50
2022-10-26T07:28:42.982Z,3.78
2022-10-26T07:31:10.271Z,5.07
2022-10-26T07:33:41.542Z,4.18
2022-10-26T07:36:11.071Z,3.78
2022-10-26T07:38:41.390Z,3.60
2022-10-26T07:41:08.144Z,3.45
2022-10-26T07:43:34.757Z,3.25
2022-10-26T07:46:03.889Z,4.38
2022-10-26T07:48:30.601Z,5.28
2022-10-26T07:50:57.274Z,4.45
2022-10-26T07:53:27.649Z,4.07
2022-10-26T07:56:01.485Z,3.58
2022-10-26T07:58:28.330Z,3.75
2022-10-26T08:00:57.549Z,4.15
2022-10-26T08:03:26.506Z,4.63
2022-10-26T08:05:56.143Z,5.28
2022-10-26T08:08:22.878Z,5.90
2022-10-26T08:10:49.695Z,12.68
2022-10-26T08:13:17.239Z,8.82
2022-10-26T08:15:46.527Z,5.05
2022-10-26T08:18:13.379Z,14.45
2022-10-26T08:20:39.986Z,10.48
2022-10-26T08:23:08.887Z,4.75
2022-10-26T08:25:35.470Z,7.35
2022-10-26T08:28:03.664Z,5.88
2022-10-26T08:30:31.349Z,3.35
2022-10-26T08:33:06.138Z,3.85
2022-10-26T08:35:35.627Z,3.10
2022-10-26T08:38:02.420Z,3.13
2022-10-26T08:40:32.697Z,3.05
2022-10-26T08:43:12.882Z,3.22
2022-10-26T08:45:45.221Z,10.70
2022-10-26T08:48:20.278Z,10.40
2022-10-26T08:50:55.247Z,4.03
2022-10-26T08:53:21.840Z,4.05
2022-10-26T08:56:25.634Z,3.83
2022-10-26T08:59:07.139Z,5.03
2022-10-26T09:01:34.665Z,2.85
2022-10-26T09:04:04.040Z,3.10
2022-10-26T09:06:34.056Z,1.95
2022-10-26T09:09:11.262Z,2.67
2022-10-26T09:12:02.228Z,2.30
2022-10-26T09:14:28.784Z,2.40
2022-10-26T09:17:15.786Z,2.45
2022-10-26T09:19:52.072Z,2.20
2022-10-26T09:22:58.470Z,2.20
2022-10-26T09:25:29.371Z,2.58
2022-10-26T09:28:00.765Z,2.50
2022-10-26T09:30:28.294Z,2.15
2022-10-26T09:33:06.475Z,2.47
2022-10-26T09:35:49.979Z,2.17
2022-10-26T09:38:29.906Z,2.05
2022-10-26T09:41:17.520Z,2.50
2022-10-26T09:43:55.842Z,1.80
2022-10-26T09:46:31.300Z,1.50
2022-10-26T09:49:11.789Z,2.00
2022-10-26T09:51:43.149Z,1.88
2022-10-26T09:54:16.847Z,1.40
2022-10-26T09:56:51.744Z,1.58
2022-10-26T09:59:21.965Z,1.75
2022-10-26T10:01:48.736Z,1.60
2022-10-26T10:04:20.455Z,2.10
2022-10-26T10:07:13.789Z,1.75
2022-10-26T10:09:40.525Z,2.10
2022-10-26T10:12:20.410Z,1.80
2022-10-26T10:14:59.779Z,2.00
2022-10-26T10:17:27.233Z,1.92
2022-10-26T10:19:54.230Z,1.50
2022-10-26T10:22:25.945Z,2.45
2022-10-26T10:24:59.715Z,1.85
2022-10-26T10:27:28.366Z,2.40
2022-10-26T10:30:03.217Z,2.13
2022-10-26T10:32:35.567Z,1.70
2022-10-26T10:35:24.001Z,1.80
2022-10-26T10:37:51.584Z,2.00
2022-10-26T10:40:21.562Z,1.73
2022-10-26T10:42:51.201Z,1.92
2022-10-26T10:45:28.607Z,1.90
2022-10-26T10:48:14.349Z,1.60
2022-10-26T10:50:59.956Z,1.73
2022-10-26T10:53:59.033Z,2.10
2022-10-26T10:56:41.532Z,2.00
2022-10-26T10:59:22.725Z,1.83
2022-10-26T11:02:23.695Z,1.58
2022-10-26T11:05:02.716Z,1.70
2022-10-26T11:07:32.427Z,1.98
2022-10-26T11:10:04.371Z,1.70
2022-10-26T11:12:38.484Z,1.55
2022-10-26T11:15:16.572Z,1.80
2022-10-26T11:18:09.546Z,1.73
2022-10-26T11:20:44.278Z,1.52
2022-10-26T11:23:23.298Z,1.90
2022-10-26T11:25:55.915Z,2.28
2022-10-26T11:28:52.992Z,2.13
2022-10-26T11:31:26.672Z,2.40
2022-10-26T11:34:30.071Z,2.50
2022-10-26T11:37:04.334Z,2.17
2022-10-26T11:39:44.554Z,2.15
2022-10-26T11:42:35.220Z,2.38
2022-10-26T11:45:23.662Z,2.75
2022-10-26T11:47:57.987Z,2.50
2022-10-26T11:50:34.260Z,2.88
2022-10-26T11:53:06.235Z,3.38
2022-10-26T11:55:33.662Z,3.35
2022-10-26T11:58:03.094Z,3.58
2022-10-26T12:00:34.608Z,3.40
2022-10-26T12:03:01.330Z,3.38
2022-10-26T12:05:33.748Z,2.90
2022-10-26T12:08:14.266Z,3.55
2022-10-26T12:10:46.493Z,2.58
2022-10-26T12:13:25.116Z,2.72
2022-10-26T12:16:04.918Z,2.85
2022-10-26T12:19:00.534Z,2.70
2022-10-26T12:21:36.411Z,3.00
2022-10-26T12:24:23.012Z,2.72
2022-10-26T12:26:59.027Z,2.40
2022-10-26T12:29:58.237Z,3.17
2022-10-26T12:32:30.872Z,2.75
2022-10-26T12:35:00.122Z,2.67
2022-10-26T12:37:31.912Z,2.72
2022-10-26T12:40:32.760Z,2.05
2022-10-26T12:43:14.784Z,2.27
2022-10-26T12:45:43.052Z,2.03
2022-10-26T12:48:39.881Z,1.45
2022-10-26T12:51:22.048Z,1.50
2022-10-26T12:54:27.901Z,1.50
2022-10-26T12:57:10.592Z,1.60
2022-10-26T12:59:40.360Z,1.40
2022-10-26T13:02:28.047Z,1.52
2022-10-26T13:05:25.710Z,1.20
2022-10-26T13:07:52.678Z,1.10
2022-10-26T13:10:23.061Z,1.30
2022-10-26T13:12:59.483Z,1.05
2022-10-26T13:15:53.286Z,0.90
2022-10-26T13:18:22.025Z,1.13
2022-10-26T13:21:05.487Z,1.00
2022-10-26T13:23:37.298Z,1.20
2022-10-26T13:26:05.789Z,0.88
2022-10-26T13:28:34.604Z,0.88
2022-10-26T13:31:01.383Z,1.02
2022-10-26T13:33:37.198Z,1.30
2022-10-26T13:36:27.126Z,1.15
2022-10-26T13:38:56.638Z,0.80
2022-10-26T13:41:32.393Z,1.10
2022-10-26T13:44:03.269Z,1.20
2022-10-26T13:46:36.075Z,1.08
2022-10-26T13:49:27.743Z,0.73
2022-10-26T13:51:54.719Z,0.82
2022-10-26T13:55:04.108Z,1.40
2022-10-26T13:57:42.525Z,1.00
2022-10-26T14:00:17.912Z,0.90
2022-10-26T14:02:47.089Z,0.80
2022-10-26T14:05:18.525Z,1.00
2022-10-26T14:07:58.094Z,1.30
2022-10-26T14:10:36.458Z,1.50
2022-10-26T14:13:07.972Z,0.90
2022-10-26T14:15:37.623Z,1.02
2022-10-26T14:18:06.962Z,0.77
2022-10-26T14:20:33.608Z,0.80
2022-10-26T14:23:00.399Z,1.00
2022-10-26T14:25:42.558Z,1.00
2022-10-26T14:28:23.810Z,0.70
2022-10-26T14:30:52.960Z,0.98
2022-10-26T14:33:25.690Z,0.98
2022-10-26T14:35:52.623Z,0.75
2022-10-26T14:38:24.112Z,0.90
2022-10-26T14:40:52.610Z,1.20
2022-10-26T14:43:23.012Z,1.10
2022-10-26T14:45:53.922Z,1.35
2022-10-26T14:48:31.865Z,1.38
2022-10-26T14:51:03.042Z,1.02
2022-10-26T14:53:42.384Z,0.95
2022-10-26T14:56:35.280Z,0.77
2022-10-26T14:59:31.217Z,1.05
2022-10-26T15:02:16.553Z,1.20
2022-10-26T15:05:01.858Z,1.00
2022-10-26T15:07:37.055Z,0.88
2022-10-26T15:10:05.297Z,0.80
2022-10-26T15:12:33.207Z,0.90
2022-10-26T15:15:17.120Z,0.90
2022-10-26T15:17:51.749Z,0.90
2022-10-26T15:20:21.189Z,0.82
2022-10-26T15:22:54.705Z,0.70
2022-10-26T15:25:25.034Z,1.27
2022-10-26T15:27:52.144Z,1.27
2022-10-26T15:30:23.707Z,1.10
2022-10-26T15:32:54.570Z,1.17
2022-10-26T15:35:28.506Z,2.72
2022-10-26T15:37:56.976Z,1.10
2022-10-26T15:43:00.691Z,1.35
2022-10-26T15:45:34.095Z,1.20
2022-10-26T15:48:23.316Z,0.95
2022-10-26T15:50:50.386Z,1.40
2022-10-26T15:53:28.796Z,1.48
2022-10-26T15:55:58.414Z,1.05
2022-10-26T15:58:26.018Z,1.00
2022-10-26T16:00:52.744Z,1.20
2022-10-26T16:03:22.806Z,1.10
2022-10-26T16:05:55.869Z,1.10
2022-10-26T16:08:27.064Z,0.90
2022-10-26T16:10:56.115Z,1.10
2022-10-26T16:13:22.839Z,1.13
2022-10-26T16:15:49.711Z,1.20
2022-10-26T16:18:16.457Z,1.67
2022-10-26T16:20:46.148Z,1.10
2022-10-26T16:23:17.757Z,1.20
2022-10-26T16:25:48.055Z,1.20
2022-10-26T16:28:16.744Z,1.45
2022-10-26T16:30:44.072Z,1.17
2022-10-26T16:33:10.758Z,1.10
2022-10-26T16:35:37.592Z,1.00
2022-10-26T16:38:04.163Z,1.80
2022-10-26T16:40:30.797Z,1.17
2022-10-26T16:42:59.706Z,1.38
2022-10-26T16:45:26.344Z,1.20
2022-10-26T16:47:55.311Z,1.10
2022-10-26T16:50:24.499Z,1.30
2022-10-26T16:52:51.101Z,1.13
2022-10-26T16:55:17.772Z,1.10
2022-10-26T16:57:44.439Z,1.40
2022-10-26T17:00:13.515Z,1.40
2022-10-26T17:02:40.246Z,1.27
2022-10-26T17:05:08.519Z,1.52
2022-10-26T17:07:35.427Z,1.40
2022-10-26T17:10:02.158Z,1.38
2022-10-26T17:12:28.957Z,1.42
2022-10-26T17:14:57.199Z,1.20
2022-10-26T17:17:23.898Z,1.65
2022-10-26T17:19:50.640Z,1.70
2022-10-26T17:22:19.623Z,1.70
2022-10-26T17:24:46.253Z,1.73
2022-10-26T17:27:12.902Z,1.63
2022-10-26T17:29:39.578Z,1.90
2022-10-26T17:32:06.227Z,1.73
2022-10-26T17:34:32.962Z,1.40
2022-10-26T17:36:59.626Z,1.45
2022-10-26T17:39:27.379Z,1.25
2022-10-26T17:41:57.135Z,1.58
2022-10-26T17:44:24.039Z,1.40
2022-10-26T17:46:52.836Z,1.23
2022-10-26T17:49:23.485Z,1.60
2022-10-26T17:51:53.009Z,1.40
2022-10-26T17:54:20.120Z,2.20
2022-10-26T17:56:49.015Z,1.40
2022-10-26T17:59:15.802Z,1.60
2022-10-26T18:01:43.629Z,1.63
2022-10-26T18:04:10.437Z,1.60
2022-10-26T18:06:37.515Z,1.85
2022-10-26T18:09:06.531Z,1.90
2022-10-26T18:11:33.386Z,1.63
2022-10-26T18:14:00.147Z,1.92
2022-10-26T18:16:29.282Z,1.70
2022-10-26T18:19:02.457Z,1.58
2022-10-26T18:21:31.740Z,1.80
2022-10-26T18:23:59.375Z,1.85
2022-10-26T18:26:31.084Z,1.58
2022-10-26T18:28:59.570Z,1.80
2022-10-26T18:31:28.278Z,1.60
2022-10-26T18:34:00.030Z,1.98
2022-10-26T18:36:27.762Z,2.40
2022-10-26T18:38:55.537Z,1.67
2022-10-26T18:41:23.792Z,2.65
2022-10-26T18:43:53.138Z,2.30
2022-10-26T18:46:24.118Z,2.25
2022-10-26T18:49:01.099Z,2.17
2022-10-26T18:51:33.560Z,2.40
2022-10-26T18:54:00.970Z,2.65
2022-10-26T18:56:27.884Z,2.20
2022-10-26T18:59:01.650Z,2.25
2022-10-26T19:01:32.341Z,2.40
2022-10-26T19:04:07.580Z,2.70
2022-10-26T19:06:43.502Z,2.08
2022-10-26T19:09:12.791Z,1.98
2022-10-26T19:11:39.624Z,2.55
2022-10-26T19:14:07.499Z,2.50
2022-10-26T19:16:49.579Z,2.65
2022-10-26T19:19:17.874Z,2.60
2022-10-26T19:21:50.821Z,2.38
2022-10-26T19:24:20.323Z,2.55
2022-10-26T19:26:48.261Z,2.13
2022-10-26T19:29:17.124Z,2.35
2022-10-26T19:31:48.483Z,1.80
2022-10-26T19:34:20.233Z,2.08
2022-10-26T19:36:47.814Z,2.30
2022-10-26T19:39:16.916Z,1.90
2022-10-26T19:41:44.115Z,2.50
2022-10-26T19:44:14.597Z,2.13
2022-10-26T19:46:44.213Z,2.85
2022-10-26T19:49:13.035Z,1.90
2022-10-26T19:51:39.928Z,3.05
2022-10-26T19:54:07.279Z,2.17
2022-10-26T19:56:35.675Z,2.47
2022-10-26T19:59:02.677Z,2.75
2022-10-26T20:01:29.368Z,2.45
2022-10-26T20:03:56.057Z,2.47
2022-10-26T20:06:22.774Z,2.60
2022-10-26T20:08:49.745Z,2.47
2022-10-26T20:11:18.268Z,2.47
2022-10-26T20:13:46.618Z,2.80
2022-10-26T20:16:15.227Z,2.13
2022-10-26T20:18:45.730Z,2.85
2022-10-26T20:21:18.309Z,2.30
2022-10-26T20:23:45.691Z,2.28
2022-10-26T20:26:19.517Z,2.60
2022-10-26T20:28:53.571Z,2.60
2022-10-26T20:31:20.454Z,2.60
2022-10-26T20:33:52.823Z,2.50
2022-10-26T20:36:20.430Z,2.58
2022-10-26T20:38:47.385Z,2.88
2022-10-26T20:41:14.277Z,3.42
2022-10-26T20:43:42.157Z,2.58
2022-10-26T20:46:17.454Z,3.45
2022-10-26T20:48:46.548Z,3.22
2022-10-26T20:51:19.767Z,3.20
2022-10-26T20:54:17.604Z,3.20
2022-10-26T20:56:45.305Z,3.40
2022-10-26T20:59:21.681Z,3.42
2022-10-26T21:01:48.556Z,2.83
2022-10-26T21:04:17.205Z,3.53
2022-10-26T21:06:43.764Z,2.90
2022-10-26T21:09:10.523Z,3.25
2022-10-26T21:11:37.510Z,2.78
2022-10-26T21:14:05.605Z,3.15
2022-10-26T21:16:32.805Z,2.75
2022-10-26T21:19:00.503Z,3.15
2022-10-26T21:21:27.267Z,3.25
2022-10-26T21:23:56.315Z,3.00
2022-10-26T21:26:23.252Z,3.78
2022-10-26T21:28:49.967Z,3.67
2022-10-26T21:31:18.485Z,2.83
2022-10-26T21:33:47.006Z,3.15
2022-10-26T21:36:14.558Z,3.20
2022-10-26T21:38:43.746Z,3.03
2022-10-26T21:41:11.927Z,3.47
2022-10-26T21:43:40.315Z,3.55
2022-10-26T21:46:08.381Z,3.33
2022-10-26T21:48:38.131Z,3.22
2022-10-26T21:51:11.286Z,3.58
2022-10-26T21:53:38.266Z,2.90
2022-10-26T21:56:19.105Z,3.30
2022-10-26T21:58:46.533Z,3.08
2022-10-26T22:01:15.997Z,3.28
2022-10-26T22:03:43.832Z,2.97
2022-10-26T22:06:12.875Z,3.38
2022-10-26T22:08:39.770Z,3.08
2022-10-26T22:11:10.553Z,3.42
2022-10-26T22:13:40.859Z,3.47
2022-10-26T22:16:35.104Z,3.20
2022-10-26T22:19:07.294Z,3.42
2022-10-26T22:21:39.252Z,2.90
2022-10-26T22:24:06.823Z,3.45
2022-10-26T22:26:36.187Z,2.85
2022-10-26T22:29:05.385Z,3.45
2022-10-26T22:31:35.289Z,3.22
2022-10-26T22:34:13.277Z,3.90
2022-10-26T22:36:40.261Z,3.53
2022-10-26T22:39:06.906Z,2.78
2022-10-26T22:41:35.872Z,3.00
2022-10-26T22:44:02.580Z,3.28
2022-10-26T22:46:31.668Z,3.13
2022-10-26T22:49:02.676Z,3.45
2022-10-26T22:51:34.859Z,3.40
2022-10-26T22:54:03.432Z,2.90
2022-10-26T22:56:31.967Z,3.10
2022-10-26T22:58:58.688Z,3.42
2022-10-26T23:01:31.497Z,2.80
2022-10-26T23:03:58.980Z,3.00
2022-10-26T23:06:27.846Z,3.20
2022-10-26T23:08:54.787Z,3.38
2022-10-26T23:11:27.154Z,2.80
2022-10-26T23:13:58.809Z,2.92
2022-10-26T23:16:26.093Z,2.42
2022-10-26T23:18:56.198Z,3.20
2022-10-26T23:23:54.851Z,3.05
2022-10-26T23:26:21.975Z,3.40
2022-10-26T23:28:49.861Z,2.92
2022-10-26T23:31:25.869Z,3.10
2022-10-26T23:33:54.666Z,2.92
2022-10-26T23:36:22.157Z,3.40
2022-10-26T23:38:49.521Z,2.75
2022-10-26T23:41:16.501Z,3.15
2022-10-26T23:43:43.163Z,2.70
2022-10-26T23:46:12.221Z,3.33
2022-10-26T23:48:38.920Z,2.78
2022-10-26T23:51:06.629Z,3.03
2022-10-26T23:53:33.506Z,2.70
2022-10-26T23:56:00.210Z,2.80
2022-10-26T23:58:29.105Z,2.47
